Time,TemperatureF,DewpointF,PressureIn,WindDirection,WindDirectionDegrees,WindSpeedMPH,WindSpeedGustMPH,Humidity,HourlyPrecipIn,Conditions,Clouds,dailyrainin,SolarRadiationWatts/m^2,SoftwareType,DateUTC
2013-05-23 00:02:00,42.9,41.6,29.86,WSW,247,0.0,0.0,95,0.00,,---,0.00,0.00,VWS V14.01,2013-05-23 07:02:00,
2013-05-23 00:07:00,42.9,41.6,29.86,WSW,247,0.0,0.0,95,0.00,,---,0.00,0.00,VWS V14.01,2013-05-23 07:07:00,
2013-05-23 00:12:00,43.1,42.0,29.87,WSW,247,0.0,0.0,96,0.00,,---,0.00,0.00,VWS V14.01,2013-05-23 07:12:00,
2013-05-23 00:17:00,43.3,42.2,29.87,WSW,247,0.0,0.0,96,0.00,,---,0.00,0.00,VWS V14.01,2013-05-23 07:17:00,
2013-05-23 00:22:00,43.4,42.3,29.87,WSW,247,0.0,0.0,96,0.00,,---,0.00,0.00,VWS V14.01,2013-05-23 07:22:00,
2013-05-23 00:27:00,43.5,42.4,29.87,WSW,247,0.0,0.0,96,0.00,,---,0.00,0.00,VWS V14.01,2013-05-23 07:27:00,
2013-05-23 00:32:00,43.6,42.5,29.86,WSW,247,0.0,0.0,96,0.00,,---,0.00,0.00,VWS V14.01,2013-05-23 07:32:00,
2013-05-23 00:37:00,43.6,42.5,29.86,WSW,247,0.0,0.0,96,0.00,,---,0.00,0.00,VWS V14.01,2013-05-23 07:37:00,
2013-05-23 00:42:00,43.6,42.5,29.87,WSW,247,0.0,0.0,96,0.00,,---,0.00,0.00,VWS V14.01,2013-05-23 07:42:00,
2013-05-23 00:47:00,43.6,42.5,29.87,WSW,247,0.0,0.0,96,0.00,,---,0.00,0.00,VWS V14.01,2013-05-23 07:47:00,
2013-05-23 00:52:00,43.8,42.7,29.87,WSW,247,0.0,0.0,96,0.00,,---,0.00,0.00,VWS V14.01,2013-05-23 07:52:00,
2013-05-23 00:57:00,43.8,42.7,29.87,WSW,247,0.0,0.0,96,0.00,,---,0.00,0.00,VWS V14.01,2013-05-23 07:57:00,
2013-05-23 01:02:00,43.9,42.8,29.87,WSW,247,0.0,0.0,96,0.00,,---,0.00,0.00,VWS V14.01,2013-05-23 08:02:00,
2013-05-23 01:07:00,43.9,42.8,29.87,WSW,247,0.0,0.0,96,0.00,,---,0.00,0.00,VWS V14.01,2013-05-23 08:07:00,
2013-05-23 01:12:00,43.9,42.8,29.87,WSW,247,0.0,0.0,96,0.00,,---,0.00,0.00,VWS V14.01,2013-05-23 08:12:00,
2013-05-23 01:17:00,43.8,42.7,29.87,WSW,247,0.0,0.0,96,0.00,,---,0.00,0.00,VWS V14.01,2013-05-23 08:17:00,
2013-05-23 01:22:00,43.8,42.7,29.87,WSW,247,0.0,0.0,96,0.00,,---,0.00,0.00,VWS V14.01,2013-05-23 08:22:00,
2013-05-23 01:27:00,43.7,42.6,29.87,WSW,247,0.0,0.0,96,0.00,,---,0.00,0.00,VWS V14.01,2013-05-23 08:27:00,
2013-05-23 01:32:00,43.6,42.5,29.88,WSW,247,0.0,0.0,96,0.00,,---,0.00,0.00,VWS V14.01,2013-05-23 08:32:00,
2013-05-23 01:37:00,43.6,42.5,29.88,WSW,247,0.0,0.0,96,0.00,,---,0.00,0.00,VWS V14.01,2013-05-23 08:37:00,
2013-05-23 01:42:00,43.5,42.4,29.88,WSW,247,0.0,1.0,96,0.00,,---,0.00,0.00,VWS V14.01,2013-05-23 08:42:00,
2013-05-23 01:47:00,43.5,42.4,29.88,WSW,247,0.0,1.0,96,0.00,,---,0.00,0.00,VWS V14.01,2013-05-23 08:47:00,
2013-05-23 01:52:00,43.4,42.3,29.88,WSW,247,0.0,0.0,96,0.00,,---,0.00,0.00,VWS V14.01,2013-05-23 08:52:00,
2013-05-23 01:57:00,43.4,42.3,29.88,WSW,247,0.0,0.0,96,0.00,,---,0.00,0.00,VWS V14.01,2013-05-23 08:57:00,
2013-05-23 02:03:00,43.4,42.3,29.88,WSW,247,0.0,0.0,96,0.00,,---,0.00,0.00,VWS V14.01,2013-05-23 09:03:00,
2013-05-23 02:08:00,43.5,42.4,29.88,WSW,247,0.0,0.0,96,0.00,,---,0.00,0.00,VWS V14.01,2013-05-23 09:08:00,
2013-05-23 02:13:00,43.5,42.4,29.89,WSW,247,0.0,0.0,96,0.00,,---,0.00,0.00,VWS V14.01,2013-05-23 09:13:00,
2013-05-23 02:18:00,43.6,42.5,29.89,WSW,247,0.0,0.0,96,0.00,,---,0.00,0.00,VWS V14.01,2013-05-23 09:18:00,
2013-05-23 02:23:00,43.6,42.5,29.89,WSW,247,0.0,0.0,96,0.00,,---,0.00,0.00,VWS V14.01,2013-05-23 09:23:00,
2013-05-23 02:28:00,43.6,42.5,29.89,WSW,247,0.0,0.0,96,0.00,,---,0.00,0.00,VWS V14.01,2013-05-23 09:28:00,
2013-05-23 02:33:00,43.7,42.6,29.89,WSW,247,0.0,0.0,96,0.00,,---,0.00,0.00,VWS V14.01,2013-05-23 09:33:00,
2013-05-23 02:38:00,43.7,42.6,29.89,WSW,247,0.0,0.0,96,0.00,,---,0.00,0.00,VWS V14.01,2013-05-23 09:38:00,
2013-05-23 02:43:00,43.7,42.6,29.89,WSW,247,0.0,0.0,96,0.00,,---,0.00,0.00,VWS V14.01,2013-05-23 09:43:00,
2013-05-23 02:48:00,43.8,42.7,29.89,WSW,247,0.0,0.0,96,0.00,,---,0.00,0.00,VWS V14.01,2013-05-23 09:48:00,
2013-05-23 02:53:00,43.8,42.7,29.89,WSW,247,0.0,0.0,96,0.01,,---,0.01,0.00,VWS V14.01,2013-05-23 09:53:00,
2013-05-23 02:58:00,43.8,42.7,29.89,WSW,247,0.0,0.0,96,0.01,,---,0.01,0.00,VWS V14.01,2013-05-23 09:58:00,
2013-05-23 03:03:00,43.9,42.8,29.89,WSW,247,0.0,0.0,96,0.01,,---,0.01,0.00,VWS V14.01,2013-05-23 10:03:00,
2013-05-23 03:08:00,44.0,43.2,29.89,WSW,247,0.0,0.0,97,0.01,,---,0.01,0.00,VWS V14.01,2013-05-23 10:08:00,
2013-05-23 03:13:00,44.0,42.9,29.89,WSW,247,0.0,0.0,96,0.01,,---,0.01,0.00,VWS V14.01,2013-05-23 10:13:00,
2013-05-23 03:18:00,44.0,42.9,29.89,WSW,247,0.0,0.0,96,0.01,,---,0.01,0.00,VWS V14.01,2013-05-23 10:18:00,
2013-05-23 03:23:00,44.0,42.9,29.88,WSW,247,0.0,0.0,96,0.01,,---,0.01,0.00,VWS V14.01,2013-05-23 10:23:00,
2013-05-23 03:28:00,44.0,42.9,29.88,WSW,247,0.0,0.0,96,0.01,,---,0.01,0.00,VWS V14.01,2013-05-23 10:28:00,
2013-05-23 03:33:00,44.0,42.9,29.88,WSW,247,0.0,0.0,96,0.02,,---,0.02,0.00,VWS V14.01,2013-05-23 10:33:00,
2013-05-23 03:38:00,43.9,42.8,29.88,WSW,247,0.0,0.0,96,0.02,,---,0.02,0.00,VWS V14.01,2013-05-23 10:38:00,
2013-05-23 03:43:00,43.9,42.8,29.88,WSW,247,0.0,0.0,96,0.02,,---,0.02,0.00,VWS V14.01,2013-05-23 10:43:00,
2013-05-23 03:48:00,43.9,42.8,29.89,WSW,247,0.0,0.0,96,0.02,,---,0.02,0.00,VWS V14.01,2013-05-23 10:48:00,
2013-05-23 03:53:00,43.8,42.7,29.89,WSW,247,0.0,0.0,96,0.01,,---,0.02,0.00,VWS V14.01,2013-05-23 10:53:00,
2013-05-23 03:58:00,43.8,42.7,29.89,WSW,247,0.0,0.0,96,0.01,,---,0.02,0.00,VWS V14.01,2013-05-23 10:58:00,
2013-05-23 04:03:00,43.8,42.7,29.89,WSW,247,0.0,0.0,96,0.01,,---,0.02,0.00,VWS V14.01,2013-05-23 11:03:00,
2013-05-23 04:08:00,43.8,42.7,29.89,WSW,247,0.0,0.0,96,0.01,,---,0.02,0.00,VWS V14.01,2013-05-23 11:08:00,
2013-05-23 04:13:00,43.8,42.7,29.89,WSW,247,0.0,0.0,96,0.01,,---,0.02,0.00,VWS V14.01,2013-05-23 11:13:00,
2013-05-23 04:18:00,43.8,42.7,29.89,WSW,247,0.0,0.0,96,0.01,,---,0.02,0.00,VWS V14.01,2013-05-23 11:18:00,
2013-05-23 04:23:00,43.8,42.7,29.89,WSW,247,0.0,0.0,96,0.01,,---,0.02,0.00,VWS V14.01,2013-05-23 11:23:00,
2013-05-23 04:28:00,43.9,42.8,29.89,WSW,247,0.0,0.0,96,0.01,,---,0.02,0.00,VWS V14.01,2013-05-23 11:28:00,
2013-05-23 04:33:00,43.9,42.8,29.89,WSW,247,0.0,0.0,96,0.00,,---,0.02,0.00,VWS V14.01,2013-05-23 11:33:00,
2013-05-23 04:38:00,44.0,42.9,29.89,WSW,247,0.0,0.0,96,0.00,,---,0.02,0.00,VWS V14.01,2013-05-23 11:38:00,
2013-05-23 04:43:00,44.0,42.9,29.89,WSW,247,0.0,0.0,96,0.00,,---,0.02,0.00,VWS V14.01,2013-05-23 11:43:00,
2013-05-23 04:48:00,44.1,43.3,29.89,WSW,247,0.0,0.0,97,0.00,,---,0.02,0.00,VWS V14.01,2013-05-23 11:48:00,
2013-05-23 04:53:00,44.2,43.4,29.89,WSW,247,0.0,0.0,97,0.00,,---,0.02,0.00,VWS V14.01,2013-05-23 11:53:00,
2013-05-23 04:58:00,44.2,43.4,29.90,WSW,247,0.0,0.0,97,0.00,,---,0.02,0.00,VWS V14.01,2013-05-23 11:58:00,
2013-05-23 05:03:00,44.2,43.4,29.90,WSW,247,0.0,0.0,97,0.00,,---,0.02,0.00,VWS V14.01,2013-05-23 12:03:00,
2013-05-23 05:08:00,44.2,43.4,29.89,WSW,247,0.0,0.0,97,0.00,,---,0.02,0.00,VWS V14.01,2013-05-23 12:08:00,
2013-05-23 05:13:00,44.3,43.5,29.89,WSW,247,0.0,0.0,97,0.01,,---,0.03,0.00,VWS V14.01,2013-05-23 12:13:00,
2013-05-23 05:18:00,44.3,43.5,29.90,WSW,247,0.0,0.0,97,0.01,,---,0.03,0.00,VWS V14.01,2013-05-23 12:18:00,
2013-05-23 05:23:00,44.3,43.5,29.90,WSW,247,0.0,0.0,97,0.01,,---,0.03,0.00,VWS V14.01,2013-05-23 12:23:00,
2013-05-23 05:28:00,44.2,43.4,29.90,WSW,247,0.0,0.0,97,0.01,,---,0.03,0.00,VWS V14.01,2013-05-23 12:28:00,
2013-05-23 05:33:00,44.2,43.4,29.90,WSW,247,0.0,0.0,97,0.01,,---,0.03,0.00,VWS V14.01,2013-05-23 12:33:00,
2013-05-23 05:38:00,44.2,43.4,29.90,WSW,247,0.0,0.0,97,0.01,,---,0.03,5.00,VWS V14.01,2013-05-23 12:38:00,
2013-05-23 05:43:00,44.1,43.3,29.90,WSW,247,0.0,0.0,97,0.01,,---,0.03,7.00,VWS V14.01,2013-05-23 12:43:00,
2013-05-23 05:48:00,44.0,43.2,29.90,WSW,247,0.0,0.0,97,0.01,,---,0.03,14.00,VWS V14.01,2013-05-23 12:48:00,
2013-05-23 05:53:00,44.0,43.2,29.90,WSW,247,0.0,0.0,97,0.01,,---,0.03,19.00,VWS V14.01,2013-05-23 12:53:00,
2013-05-23 05:58:00,44.0,43.2,29.90,WSW,247,0.0,0.0,97,0.01,,---,0.03,25.00,VWS V14.01,2013-05-23 12:58:00,
2013-05-23 06:03:00,44.0,43.2,29.90,WSW,247,0.0,1.0,97,0.01,,---,0.03,32.00,VWS V14.01,2013-05-23 13:03:00,
2013-05-23 06:08:00,44.0,43.2,29.90,WSW,247,0.0,2.0,97,0.01,,---,0.03,28.00,VWS V14.01,2013-05-23 13:08:00,
2013-05-23 06:13:00,44.1,43.3,29.90,WSW,247,0.0,0.0,97,0.00,,---,0.03,28.00,VWS V14.01,2013-05-23 13:13:00,
2013-05-23 06:18:00,44.2,43.4,29.90,WSW,247,0.0,0.0,97,0.01,,---,0.04,35.00,VWS V14.01,2013-05-23 13:18:00,
2013-05-23 06:23:00,44.2,43.4,29.90,WSW,247,0.0,1.0,97,0.01,,---,0.04,39.00,VWS V14.01,2013-05-23 13:23:00,
2013-05-23 06:28:00,44.1,43.3,29.90,WSW,247,0.0,2.0,97,0.01,,---,0.04,44.00,VWS V14.01,2013-05-23 13:28:00,
2013-05-23 06:33:00,44.1,43.3,29.90,WSW,247,0.0,2.0,97,0.01,,---,0.04,46.00,VWS V14.01,2013-05-23 13:33:00,
2013-05-23 06:38:00,44.0,42.9,29.90,SE,140,0.0,2.0,96,0.01,,---,0.04,44.00,VWS V14.01,2013-05-23 13:38:00,
2013-05-23 06:43:00,44.0,42.9,29.91,SE,140,0.0,2.0,96,0.01,,---,0.04,39.00,VWS V14.01,2013-05-23 13:43:00,
2013-05-23 06:48:00,44.0,42.9,29.91,East,97,0.0,1.0,96,0.02,,---,0.05,35.00,VWS V14.01,2013-05-23 13:48:00,
2013-05-23 06:53:00,44.0,42.9,29.91,East,97,0.0,1.0,96,0.02,,---,0.05,39.00,VWS V14.01,2013-05-23 13:53:00,
2013-05-23 06:58:00,44.2,43.1,29.91,East,97,0.0,0.0,96,0.02,,---,0.05,33.00,VWS V14.01,2013-05-23 13:58:00,
2013-05-23 07:03:00,44.2,43.1,29.91,East,97,0.0,0.0,96,0.02,,---,0.05,28.00,VWS V14.01,2013-05-23 14:03:00,
2013-05-23 07:08:00,44.1,43.0,29.91,East,97,0.0,0.0,96,0.02,,---,0.05,26.00,VWS V14.01,2013-05-23 14:08:00,
2013-05-23 07:13:00,44.2,43.1,29.91,East,97,0.0,0.0,96,0.02,,---,0.05,33.00,VWS V14.01,2013-05-23 14:13:00,
2013-05-23 07:18:00,44.3,43.2,29.91,East,97,0.0,0.0,96,0.01,,---,0.05,37.00,VWS V14.01,2013-05-23 14:18:00,
2013-05-23 07:23:00,44.5,43.4,29.91,East,97,0.0,0.0,96,0.01,,---,0.05,46.00,VWS V14.01,2013-05-23 14:23:00,
2013-05-23 07:28:00,44.7,43.6,29.92,East,97,0.0,0.0,96,0.01,,---,0.05,53.00,VWS V14.01,2013-05-23 14:28:00,
2013-05-23 07:33:00,44.7,43.6,29.92,East,97,0.0,0.0,96,0.01,,---,0.05,56.00,VWS V14.01,2013-05-23 14:33:00,
2013-05-23 07:38:00,44.8,43.7,29.92,East,97,0.0,0.0,96,0.01,,---,0.05,90.00,VWS V14.01,2013-05-23 14:38:00,
2013-05-23 07:43:00,45.0,43.9,29.92,East,97,0.0,0.0,96,0.01,,---,0.05,98.00,VWS V14.01,2013-05-23 14:43:00,
2013-05-23 07:48:00,45.3,44.2,29.92,East,97,0.0,0.0,96,0.00,,---,0.05,98.00,VWS V14.01,2013-05-23 14:48:00,
2013-05-23 07:53:00,45.6,44.5,29.92,East,97,0.0,0.0,96,0.00,,---,0.05,128.00,VWS V14.01,2013-05-23 14:53:00,
2013-05-23 07:58:00,45.7,44.6,29.92,East,97,0.0,0.0,96,0.00,,---,0.05,83.00,VWS V14.01,2013-05-23 14:58:00,
2013-05-23 08:03:00,45.8,44.7,29.92,East,97,0.0,0.0,96,0.00,,---,0.05,67.00,VWS V14.01,2013-05-23 15:03:00,
2013-05-23 08:08:00,45.8,44.7,29.92,East,97,0.0,0.0,96,0.00,,---,0.05,90.00,VWS V14.01,2013-05-23 15:08:00,
2013-05-23 08:13:00,45.9,44.8,29.93,East,97,0.0,0.0,96,0.00,,---,0.05,132.00,VWS V14.01,2013-05-23 15:13:00,
2013-05-23 08:18:00,46.2,45.1,29.93,East,97,0.0,0.0,96,0.00,,---,0.05,127.00,VWS V14.01,2013-05-23 15:18:00,
2013-05-23 08:23:00,46.4,45.3,29.93,East,97,0.0,0.0,96,0.00,,---,0.05,90.00,VWS V14.01,2013-05-23 15:23:00,
2013-05-23 08:28:00,46.5,45.2,29.93,East,97,0.0,0.0,95,0.00,,---,0.05,109.00,VWS V14.01,2013-05-23 15:28:00,
2013-05-23 08:33:00,46.5,45.4,29.93,East,97,0.0,0.0,96,0.00,,---,0.05,139.00,VWS V14.01,2013-05-23 15:33:00,
2013-05-23 08:38:00,46.7,45.3,29.93,East,97,0.0,0.0,95,0.00,,---,0.05,158.00,VWS V14.01,2013-05-23 15:38:00,
2013-05-23 08:43:00,46.6,45.2,29.93,East,97,0.0,1.0,95,0.00,,---,0.05,172.00,VWS V14.01,2013-05-23 15:43:00,
2013-05-23 08:48:00,46.6,45.0,29.93,East,97,0.0,2.0,94,0.00,,---,0.05,171.00,VWS V14.01,2013-05-23 15:48:00,
2013-05-23 08:53:00,46.7,45.1,29.93,East,87,0.0,2.0,94,0.00,,---,0.05,181.00,VWS V14.01,2013-05-23 15:53:00,
2013-05-23 08:58:00,46.9,45.3,29.93,East,87,0.0,2.0,94,0.00,,---,0.05,190.00,VWS V14.01,2013-05-23 15:58:00,
2013-05-23 09:03:00,47.2,45.3,29.93,East,87,0.0,2.0,93,0.00,,---,0.05,200.00,VWS V14.01,2013-05-23 16:03:00,
2013-05-23 09:08:00,47.5,45.6,29.93,ENE,67,0.0,1.0,93,0.00,,---,0.05,172.00,VWS V14.01,2013-05-23 16:08:00,
2013-05-23 09:13:00,47.8,45.9,29.93,ENE,67,0.0,2.0,93,0.00,,---,0.05,221.00,VWS V14.01,2013-05-23 16:13:00,
2013-05-23 09:18:00,48.2,46.3,29.93,ENE,67,0.0,2.0,93,0.00,,---,0.05,193.00,VWS V14.01,2013-05-23 16:18:00,
2013-05-23 09:23:00,48.8,46.9,29.93,ENE,67,0.0,2.0,93,0.00,,---,0.05,596.00,VWS V14.01,2013-05-23 16:23:00,
2013-05-23 09:28:00,49.9,48.2,29.93,NE,38,0.0,2.0,94,0.00,,---,0.05,759.00,VWS V14.01,2013-05-23 16:28:00,
2013-05-23 09:34:00,50.9,48.4,29.92,ESE,109,0.0,4.0,91,0.00,,---,0.05,765.00,VWS V14.01,2013-05-23 16:34:00,
2013-05-23 09:39:00,51.5,47.5,29.92,WNW,290,1.0,4.0,86,0.00,,---,0.05,710.00,VWS V14.01,2013-05-23 16:39:00,
2013-05-23 09:44:00,52.4,48.7,29.92,WNW,290,0.0,2.0,87,0.00,,---,0.05,250.00,VWS V14.01,2013-05-23 16:44:00,
2013-05-23 09:49:00,52.6,46.9,29.92,NW,307,0.0,1.0,81,0.00,,---,0.05,332.00,VWS V14.01,2013-05-23 16:49:00,
2013-05-23 09:54:00,52.6,48.2,29.93,NW,307,0.0,1.0,85,0.00,,---,0.05,287.00,VWS V14.01,2013-05-23 16:54:00,
2013-05-23 09:59:00,52.8,48.4,29.93,NW,307,0.0,1.0,85,0.00,,---,0.05,202.00,VWS V14.01,2013-05-23 16:59:00,
2013-05-23 10:04:00,52.6,46.9,29.92,WSW,237,0.0,1.0,81,0.00,,---,0.05,197.00,VWS V14.01,2013-05-23 17:04:00,
2013-05-23 10:09:00,52.5,46.8,29.92,WSW,238,0.0,0.0,81,0.00,,---,0.05,262.00,VWS V14.01,2013-05-23 17:09:00,
2013-05-23 10:14:00,52.9,48.2,29.92,WSW,250,0.0,2.0,84,0.00,,---,0.05,211.00,VWS V14.01,2013-05-23 17:14:00,
2013-05-23 10:19:00,53.0,47.7,29.92,East,80,1.0,2.0,82,0.00,,---,0.05,207.00,VWS V14.01,2013-05-23 17:19:00,
2013-05-23 10:24:00,52.5,46.8,29.92,ENE,78,0.0,3.0,81,0.00,,---,0.05,216.00,VWS V14.01,2013-05-23 17:24:00,
2013-05-23 10:29:00,52.3,47.3,29.92,NNW,336,0.0,3.0,83,0.00,,---,0.05,251.00,VWS V14.01,2013-05-23 17:29:00,
2013-05-23 10:34:00,52.2,46.5,29.92,NNW,336,0.0,2.0,81,0.00,,---,0.05,258.00,VWS V14.01,2013-05-23 17:34:00,
2013-05-23 10:39:00,52.4,46.1,29.92,NNE,21,1.0,2.0,79,0.00,,---,0.05,387.00,VWS V14.01,2013-05-23 17:39:00,
2013-05-23 10:44:00,52.6,47.6,29.92,NNE,21,0.0,2.0,83,0.00,,---,0.05,209.00,VWS V14.01,2013-05-23 17:44:00,
2013-05-23 10:49:00,52.8,47.1,29.92,NW,306,3.0,3.0,81,0.00,,---,0.05,151.00,VWS V14.01,2013-05-23 17:49:00,
2013-05-23 10:54:00,53.2,47.9,29.92,WNW,284,1.0,4.0,82,0.00,,---,0.05,262.00,VWS V14.01,2013-05-23 17:54:00,
2013-05-23 10:59:00,53.7,46.7,29.91,WNW,283,0.0,3.0,77,0.00,,---,0.05,262.00,VWS V14.01,2013-05-23 17:59:00,
2013-05-23 11:04:00,53.8,45.7,29.91,South,177,0.0,5.0,74,0.00,,---,0.05,223.00,VWS V14.01,2013-05-23 18:04:00,
2013-05-23 11:09:00,53.8,46.8,29.91,WSW,255,3.0,5.0,77,0.00,,---,0.05,183.00,VWS V14.01,2013-05-23 18:09:00,
2013-05-23 11:14:00,53.6,46.9,29.91,SSW,203,1.0,3.0,78,0.00,,---,0.05,167.00,VWS V14.01,2013-05-23 18:14:00,
2013-05-23 11:19:00,53.4,46.4,29.91,SW,217,0.0,4.0,77,0.00,,---,0.05,214.00,VWS V14.01,2013-05-23 18:19:00,
2013-05-23 11:24:00,53.1,45.8,29.91,South,190,0.0,4.0,76,0.00,,---,0.05,221.00,VWS V14.01,2013-05-23 18:24:00,
2013-05-23 11:29:00,53.2,46.5,29.91,West,271,0.0,5.0,78,0.00,,---,0.05,220.00,VWS V14.01,2013-05-23 18:29:00,
2013-05-23 11:34:00,53.2,45.8,29.91,West,271,0.0,3.0,76,0.00,,---,0.05,234.00,VWS V14.01,2013-05-23 18:34:00,
2013-05-23 11:39:00,53.2,44.8,29.91,SSW,196,0.0,2.0,73,0.00,,---,0.05,267.00,VWS V14.01,2013-05-23 18:39:00,
2013-05-23 11:44:00,53.3,46.3,29.92,SSW,196,0.0,2.0,77,0.00,,---,0.05,464.00,VWS V14.01,2013-05-23 18:44:00,
2013-05-23 11:49:00,53.9,47.2,29.91,East,89,0.0,3.0,78,0.00,,---,0.05,318.00,VWS V14.01,2013-05-23 18:49:00,
2013-05-23 11:54:00,54.4,48.4,29.91,WNW,290,0.0,4.0,80,0.00,,---,0.05,492.00,VWS V14.01,2013-05-23 18:54:00,
2013-05-23 11:59:00,55.2,47.8,29.91,NW,321,2.0,4.0,76,0.00,,---,0.05,492.00,VWS V14.01,2013-05-23 18:59:00,
2013-05-23 12:04:00,56.0,47.1,29.91,SE,127,0.0,2.0,72,0.00,,---,0.05,733.00,VWS V14.01,2013-05-23 19:04:00,
2013-05-23 12:09:00,56.4,47.5,29.91,SE,134,0.0,4.0,72,0.00,,---,0.05,237.00,VWS V14.01,2013-05-23 19:09:00,
2013-05-23 12:14:00,56.2,45.0,29.91,South,169,0.0,2.0,66,0.00,,---,0.05,230.00,VWS V14.01,2013-05-23 19:14:00,
2013-05-23 12:19:00,55.9,45.9,29.91,South,180,1.0,2.0,69,0.00,,---,0.05,441.00,VWS V14.01,2013-05-23 19:19:00,
2013-05-23 12:24:00,55.6,44.8,29.91,SSE,155,0.0,2.0,67,0.00,,---,0.05,754.00,VWS V14.01,2013-05-23 19:24:00,
2013-05-23 12:29:00,56.1,49.0,29.90,WNW,292,2.0,3.0,77,0.00,,---,0.05,717.00,VWS V14.01,2013-05-23 19:29:00,
2013-05-23 12:34:00,56.8,47.9,29.90,NE,42,0.0,3.0,72,0.00,,---,0.05,715.00,VWS V14.01,2013-05-23 19:34:00,
2013-05-23 12:39:00,57.4,48.5,29.90,WNW,289,1.0,1.0,72,0.00,,---,0.05,357.00,VWS V14.01,2013-05-23 19:39:00,
2013-05-23 12:44:00,57.7,46.0,29.90,SW,214,0.0,4.0,65,0.00,,---,0.05,404.00,VWS V14.01,2013-05-23 19:44:00,
2013-05-23 12:49:00,57.8,44.5,29.90,SSE,150,0.0,5.0,61,0.00,,---,0.05,1063.00,VWS V14.01,2013-05-23 19:49:00,
2013-05-23 12:54:00,58.0,49.0,29.90,WNW,283,3.0,6.0,72,0.00,,---,0.05,1201.00,VWS V14.01,2013-05-23 19:54:00,
2013-05-23 12:59:00,59.3,47.1,29.90,SSW,194,0.0,5.0,64,0.00,,---,0.05,573.00,VWS V14.01,2013-05-23 19:59:00,
2013-05-23 13:04:00,59.4,46.8,29.90,SSE,153,1.0,5.0,63,0.00,,---,0.05,411.00,VWS V14.01,2013-05-23 20:04:00,
2013-05-23 13:09:00,59.8,49.6,29.90,SW,227,5.0,9.0,69,0.00,,---,0.05,944.00,VWS V14.01,2013-05-23 20:09:00,
2013-05-23 13:14:00,59.9,48.1,29.91,West,273,9.0,13.0,65,0.00,,---,0.05,207.00,VWS V14.01,2013-05-23 20:14:00,
2013-05-23 13:19:00,58.6,47.7,29.91,WSW,249,3.0,10.0,67,0.00,,---,0.05,132.00,VWS V14.01,2013-05-23 20:19:00,
2013-05-23 13:24:00,57.3,46.8,29.91,SSW,197,5.0,13.0,68,0.00,,---,0.05,221.00,VWS V14.01,2013-05-23 20:24:00,
2013-05-23 13:29:00,55.4,45.8,29.91,SW,227,2.0,11.0,70,0.00,,---,0.05,236.00,VWS V14.01,2013-05-23 20:29:00,
2013-05-23 13:34:00,54.7,46.6,29.92,West,265,5.0,11.0,74,0.00,,---,0.05,172.00,VWS V14.01,2013-05-23 20:34:00,
2013-05-23 13:39:00,53.8,46.8,29.91,SSE,163,5.0,11.0,77,0.00,,---,0.05,272.00,VWS V14.01,2013-05-23 20:39:00,
2013-05-23 13:44:00,53.4,45.7,29.92,West,259,2.0,10.0,75,0.00,,---,0.05,304.00,VWS V14.01,2013-05-23 20:44:00,
2013-05-23 13:49:00,53.5,46.8,29.92,SSW,207,2.0,6.0,78,0.00,,---,0.05,125.00,VWS V14.01,2013-05-23 20:49:00,
2013-05-23 13:54:00,53.0,45.3,29.92,West,280,5.0,6.0,75,0.00,,---,0.05,69.00,VWS V14.01,2013-05-23 20:54:00,
2013-05-23 13:59:00,52.4,45.1,29.93,SSW,204,3.0,6.0,76,0.00,,---,0.05,84.00,VWS V14.01,2013-05-23 20:59:00,
2013-05-23 14:04:00,51.8,44.5,29.93,SSE,163,0.0,4.0,76,0.00,,---,0.05,86.00,VWS V14.01,2013-05-23 21:04:00,
2013-05-23 14:09:00,51.6,44.6,29.93,WNW,300,0.0,6.0,77,0.00,,---,0.05,95.00,VWS V14.01,2013-05-23 21:09:00,
2013-05-23 14:14:00,51.4,44.1,29.93,SSE,166,1.0,6.0,76,0.00,,---,0.05,100.00,VWS V14.01,2013-05-23 21:14:00,
2013-05-23 14:19:00,51.2,44.2,29.93,SW,230,2.0,6.0,77,0.00,,---,0.05,118.00,VWS V14.01,2013-05-23 21:19:00,
2013-05-23 14:24:00,51.1,44.2,29.93,SSW,203,4.0,8.0,77,0.00,,---,0.05,141.00,VWS V14.01,2013-05-23 21:24:00,
2013-05-23 14:30:00,51.2,44.6,29.93,West,277,0.0,7.0,78,0.00,,---,0.05,118.00,VWS V14.01,2013-05-23 21:30:00,
2013-05-23 14:35:00,51.3,44.3,29.93,SSW,195,1.0,5.0,77,0.00,,---,0.05,160.00,VWS V14.01,2013-05-23 21:35:00,
2013-05-23 14:40:00,51.5,43.8,29.94,WNW,297,2.0,5.0,75,0.00,,---,0.05,171.00,VWS V14.01,2013-05-23 21:40:00,
2013-05-23 14:45:00,51.6,44.3,29.94,SSE,159,0.0,5.0,76,0.00,,---,0.05,171.00,VWS V14.01,2013-05-23 21:45:00,
2013-05-23 14:50:00,51.6,44.3,29.94,SSW,198,1.0,5.0,76,0.00,,---,0.05,172.00,VWS V14.01,2013-05-23 21:50:00,
2013-05-23 14:55:00,51.6,44.3,29.94,WSW,251,0.0,4.0,76,0.00,,---,0.05,181.00,VWS V14.01,2013-05-23 21:55:00,
2013-05-23 15:00:00,51.7,44.0,29.94,West,281,3.0,6.0,75,0.00,,---,0.05,163.00,VWS V14.01,2013-05-23 22:00:00,
2013-05-23 15:05:00,51.7,44.4,29.94,SE,143,1.0,8.0,76,0.00,,---,0.05,128.00,VWS V14.01,2013-05-23 22:05:00,
2013-05-23 15:10:00,51.5,44.5,29.95,SW,221,0.0,7.0,77,0.00,,---,0.05,132.00,VWS V14.01,2013-05-23 22:10:00,
2013-05-23 15:15:00,51.0,45.1,29.95,SW,227,1.0,6.0,80,0.00,,---,0.05,155.00,VWS V14.01,2013-05-23 22:15:00,
2013-05-23 15:20:00,50.9,45.6,29.95,SSW,206,1.0,6.0,82,0.00,,---,0.05,142.00,VWS V14.01,2013-05-23 22:20:00,
2013-05-23 15:25:00,50.7,46.0,29.95,SW,214,0.0,2.0,84,0.01,,---,0.06,160.00,VWS V14.01,2013-05-23 22:25:00,
2013-05-23 15:30:00,50.5,45.8,29.95,SW,219,1.0,5.0,84,0.01,,---,0.06,163.00,VWS V14.01,2013-05-23 22:30:00,
2013-05-23 15:35:00,50.4,46.4,29.95,ESE,115,0.0,3.0,86,0.01,,---,0.06,151.00,VWS V14.01,2013-05-23 22:35:00,
2013-05-23 15:40:00,50.5,46.2,29.95,West,269,0.0,2.0,85,0.01,,---,0.06,93.00,VWS V14.01,2013-05-23 22:40:00,
2013-05-23 15:45:00,50.4,45.8,29.95,SW,219,1.0,4.0,84,0.01,,---,0.06,98.00,VWS V14.01,2013-05-23 22:45:00,
2013-05-23 15:50:00,50.2,45.6,29.95,East,80,1.0,4.0,84,0.01,,---,0.06,56.00,VWS V14.01,2013-05-23 22:50:00,
2013-05-23 15:55:00,50.0,45.4,29.95,SSE,159,0.0,3.0,84,0.01,,---,0.06,107.00,VWS V14.01,2013-05-23 22:55:00,
2013-05-23 16:00:00,49.7,45.7,29.95,ESE,107,4.0,4.0,86,0.01,,---,0.06,121.00,VWS V14.01,2013-05-23 23:00:00,
2013-05-23 16:05:00,49.7,46.0,29.95,SW,231,0.0,4.0,87,0.01,,---,0.06,148.00,VWS V14.01,2013-05-23 23:05:00,
2013-05-23 16:10:00,49.7,45.7,29.95,South,186,0.0,2.0,86,0.01,,---,0.06,156.00,VWS V14.01,2013-05-23 23:10:00,
2013-05-23 16:15:00,49.9,45.9,29.95,NNE,22,4.0,5.0,86,0.01,,---,0.06,153.00,VWS V14.01,2013-05-23 23:15:00,
2013-05-23 16:20:00,49.9,45.6,29.95,SW,230,0.0,5.0,85,0.01,,---,0.06,142.00,VWS V14.01,2013-05-23 23:20:00,
2013-05-23 16:25:00,50.0,45.7,29.95,SSW,202,0.0,4.0,85,0.01,,---,0.07,171.00,VWS V14.01,2013-05-23 23:25:00,
2013-05-23 16:30:00,50.1,45.5,29.95,ENE,61,1.0,4.0,84,0.01,,---,0.07,206.00,VWS V14.01,2013-05-23 23:30:00,
2013-05-23 16:35:00,50.1,45.8,29.95,East,80,0.0,2.0,85,0.01,,---,0.07,202.00,VWS V14.01,2013-05-23 23:35:00,
2013-05-23 16:40:00,50.4,46.4,29.95,WNW,288,0.0,3.0,86,0.01,,---,0.07,193.00,VWS V14.01,2013-05-23 23:40:00,
2013-05-23 16:45:00,50.6,45.6,29.95,SSE,162,1.0,3.0,83,0.01,,---,0.07,181.00,VWS V14.01,2013-05-23 23:45:00,
2013-05-23 16:50:00,50.7,45.4,29.94,West,261,0.0,3.0,82,0.01,,---,0.07,160.00,VWS V14.01,2013-05-23 23:50:00,
2013-05-23 16:55:00,51.1,47.1,29.94,West,261,0.0,2.0,86,0.01,,---,0.07,162.00,VWS V14.01,2013-05-23 23:55:00,
2013-05-23 17:00:00,51.4,45.8,29.94,South,184,0.0,1.0,81,0.01,,---,0.07,155.00,VWS V14.01,2013-05-24 00:00:00,
2013-05-23 17:05:00,51.6,46.0,29.94,SW,223,0.0,2.0,81,0.01,,---,0.07,139.00,VWS V14.01,2013-05-24 00:05:00,
2013-05-23 17:10:00,51.6,45.3,29.94,SW,223,0.0,2.0,79,0.01,,---,0.07,135.00,VWS V14.01,2013-05-24 00:10:00,
2013-05-23 17:15:00,51.5,44.5,29.94,SW,223,0.0,0.0,77,0.01,,---,0.07,144.00,VWS V14.01,2013-05-24 00:15:00,
2013-05-23 17:20:00,51.5,44.9,29.93,SW,223,0.0,0.0,78,0.01,,---,0.07,144.00,VWS V14.01,2013-05-24 00:20:00,
2013-05-23 17:25:00,51.6,45.3,29.93,SW,223,0.0,0.0,79,0.00,,---,0.07,148.00,VWS V14.01,2013-05-24 00:25:00,
2013-05-23 17:30:00,51.7,45.1,29.93,SW,223,0.0,0.0,78,0.00,,---,0.07,146.00,VWS V14.01,2013-05-24 00:30:00,
2013-05-23 17:35:00,51.8,45.2,29.93,SW,223,0.0,0.0,78,0.00,,---,0.07,134.00,VWS V14.01,2013-05-24 00:35:00,
2013-05-23 17:40:00,51.9,44.9,29.93,SSE,166,0.0,2.0,77,0.00,,---,0.07,132.00,VWS V14.01,2013-05-24 00:40:00,
2013-05-23 17:45:00,52.0,46.0,29.93,NNE,12,0.0,2.0,80,0.00,,---,0.07,127.00,VWS V14.01,2013-05-24 00:45:00,
2013-05-23 17:50:00,52.2,46.9,29.92,North,9,0.0,2.0,82,0.00,,---,0.07,113.00,VWS V14.01,2013-05-24 00:50:00,
2013-05-23 17:55:00,52.3,46.7,29.92,North,9,0.0,1.0,81,0.00,,---,0.07,100.00,VWS V14.01,2013-05-24 00:55:00,
2013-05-23 18:00:00,52.3,47.0,29.93,East,82,1.0,3.0,82,0.00,,---,0.07,95.00,VWS V14.01,2013-05-24 01:00:00,
2013-05-23 18:05:00,52.2,47.2,29.92,NE,55,0.0,3.0,83,0.00,,---,0.07,93.00,VWS V14.01,2013-05-24 01:05:00,
2013-05-23 18:10:00,52.1,46.8,29.92,ENE,74,0.0,2.0,82,0.00,,---,0.07,91.00,VWS V14.01,2013-05-24 01:10:00,
2013-05-23 18:15:00,51.9,46.9,29.92,ENE,76,0.0,2.0,83,0.00,,---,0.07,91.00,VWS V14.01,2013-05-24 01:15:00,
2013-05-23 18:20:00,51.7,46.7,29.92,ENE,76,0.0,1.0,83,0.00,,---,0.07,88.00,VWS V14.01,2013-05-24 01:20:00,
2013-05-23 18:25:00,51.5,46.5,29.92,ENE,65,1.0,2.0,83,0.00,,---,0.07,86.00,VWS V14.01,2013-05-24 01:25:00,
2013-05-23 18:30:00,51.4,46.4,29.92,ENE,65,0.0,2.0,83,0.00,,---,0.07,79.00,VWS V14.01,2013-05-24 01:30:00,
2013-05-23 18:35:00,51.4,46.4,29.92,ENE,65,0.0,2.0,83,0.00,,---,0.07,74.00,VWS V14.01,2013-05-24 01:35:00,
2013-05-23 18:40:00,51.3,46.3,29.92,ENE,65,0.0,2.0,83,0.00,,---,0.07,70.00,VWS V14.01,2013-05-24 01:40:00,
2013-05-23 18:45:00,51.4,47.0,29.92,ENE,65,0.0,0.0,85,0.00,,---,0.07,67.00,VWS V14.01,2013-05-24 01:45:00,
2013-05-23 18:50:00,51.3,47.0,29.92,NNE,28,0.0,2.0,85,0.00,,---,0.07,69.00,VWS V14.01,2013-05-24 01:50:00,
2013-05-23 18:55:00,51.3,47.0,29.92,NNE,28,0.0,2.0,85,0.00,,---,0.07,67.00,VWS V14.01,2013-05-24 01:55:00,
2013-05-23 19:00:00,51.2,46.8,29.92,NNW,337,1.0,2.0,85,0.00,,---,0.07,62.00,VWS V14.01,2013-05-24 02:00:00,
2013-05-23 19:05:00,51.2,46.5,29.91,NNW,337,0.0,1.0,84,0.00,,---,0.07,56.00,VWS V14.01,2013-05-24 02:05:00,
2013-05-23 19:10:00,51.2,46.8,29.91,NNW,337,0.0,0.0,85,0.00,,---,0.07,51.00,VWS V14.01,2013-05-24 02:10:00,
2013-05-23 19:15:00,51.3,47.0,29.91,NNW,337,0.0,1.0,85,0.00,,---,0.07,47.00,VWS V14.01,2013-05-24 02:15:00,
2013-05-23 19:20:00,51.2,46.5,29.91,NNW,337,0.0,2.0,84,0.00,,---,0.07,46.00,VWS V14.01,2013-05-24 02:20:00,
2013-05-23 19:25:00,51.2,46.5,29.91,NNW,337,0.0,2.0,84,0.00,,---,0.07,42.00,VWS V14.01,2013-05-24 02:25:00,
2013-05-23 19:30:00,51.1,46.8,29.91,NNW,337,0.0,0.0,85,0.00,,---,0.07,39.00,VWS V14.01,2013-05-24 02:30:00,
2013-05-23 19:35:00,51.1,46.8,29.91,NNW,337,0.0,0.0,85,0.00,,---,0.07,32.00,VWS V14.01,2013-05-24 02:35:00,
2013-05-23 19:40:00,51.0,46.7,29.91,NNW,337,0.0,0.0,85,0.00,,---,0.07,26.00,VWS V14.01,2013-05-24 02:40:00,
2013-05-23 19:45:00,50.9,46.6,29.91,NNW,337,0.0,0.0,85,0.00,,---,0.07,23.00,VWS V14.01,2013-05-24 02:45:00,
2013-05-23 19:50:00,50.8,46.5,29.91,NNW,337,0.0,0.0,85,0.00,,---,0.07,21.00,VWS V14.01,2013-05-24 02:50:00,
2013-05-23 19:55:00,50.7,46.4,29.91,NNW,337,0.0,0.0,85,0.00,,---,0.07,19.00,VWS V14.01,2013-05-24 02:55:00,
2013-05-23 20:00:00,50.6,46.6,29.91,NNW,337,0.0,0.0,86,0.00,,---,0.07,19.00,VWS V14.01,2013-05-24 03:00:00,
2013-05-23 20:05:00,50.5,46.5,29.91,NNW,337,0.0,0.0,86,0.00,,---,0.07,21.00,VWS V14.01,2013-05-24 03:05:00,
2013-05-23 20:10:00,50.3,46.3,29.91,NNW,337,0.0,0.0,86,0.00,,---,0.07,19.00,VWS V14.01,2013-05-24 03:10:00,
2013-05-23 20:15:00,50.1,46.1,29.91,NNW,337,0.0,0.0,86,0.00,,---,0.07,19.00,VWS V14.01,2013-05-24 03:15:00,
2013-05-23 20:20:00,50.0,46.3,29.91,NNW,337,0.0,0.0,87,0.00,,---,0.07,14.00,VWS V14.01,2013-05-24 03:20:00,
2013-05-23 20:25:00,49.9,46.2,29.91,NNW,337,0.0,0.0,87,0.00,,---,0.07,12.00,VWS V14.01,2013-05-24 03:25:00,
2013-05-23 20:30:00,49.8,46.4,29.91,NNW,337,0.0,0.0,88,0.00,,---,0.07,9.00,VWS V14.01,2013-05-24 03:30:00,
2013-05-23 20:35:00,49.7,46.3,29.91,NNW,337,0.0,0.0,88,0.00,,---,0.07,7.00,VWS V14.01,2013-05-24 03:35:00,
2013-05-23 20:40:00,49.6,46.2,29.91,NNW,337,0.0,0.0,88,0.00,,---,0.07,5.00,VWS V14.01,2013-05-24 03:40:00,
2013-05-23 20:45:00,49.3,45.9,29.91,NNW,337,0.0,0.0,88,0.00,,---,0.07,0.00,VWS V14.01,2013-05-24 03:45:00,
2013-05-23 20:50:00,49.1,46.0,29.91,NNW,337,0.0,0.0,89,0.00,,---,0.07,0.00,VWS V14.01,2013-05-24 03:50:00,
2013-05-23 20:55:00,48.8,45.7,29.91,NNW,337,0.0,0.0,89,0.00,,---,0.07,0.00,VWS V14.01,2013-05-24 03:55:00,
2013-05-23 21:00:00,48.7,45.6,29.91,NNW,337,0.0,0.0,89,0.00,,---,0.07,0.00,VWS V14.01,2013-05-24 04:00:00,
2013-05-23 21:01:00,48.7,45.6,29.91,NNW,337,0.0,0.0,89,0.00,,---,0.07,0.00,VWS V14.01,2013-05-24 04:01:00,
2013-05-23 21:06:00,48.5,45.4,29.91,NNW,337,0.0,0.0,89,0.00,,---,0.07,0.00,VWS V14.01,2013-05-24 04:06:00,
2013-05-23 21:11:00,48.3,45.2,29.91,NNW,337,0.0,0.0,89,0.00,,---,0.07,0.00,VWS V14.01,2013-05-24 04:11:00,
2013-05-23 21:16:00,48.1,45.0,29.91,NNW,337,0.0,0.0,89,0.00,,---,0.07,0.00,VWS V14.01,2013-05-24 04:16:00,
2013-05-23 21:21:00,47.9,44.8,29.91,NNW,337,0.0,0.0,89,0.00,,---,0.07,0.00,VWS V14.01,2013-05-24 04:21:00,
2013-05-23 21:26:00,47.8,44.7,29.91,NNW,337,0.0,0.0,89,0.00,,---,0.07,0.00,VWS V14.01,2013-05-24 04:26:00,
2013-05-23 21:31:00,47.6,44.8,29.91,NNW,337,0.0,0.0,90,0.00,,---,0.07,0.00,VWS V14.01,2013-05-24 04:31:00,
2013-05-23 21:36:00,47.4,44.6,29.91,NNW,337,0.0,0.0,90,0.00,,---,0.07,0.00,VWS V14.01,2013-05-24 04:36:00,
2013-05-23 21:41:00,47.3,44.5,29.91,NNW,337,0.0,0.0,90,0.00,,---,0.07,0.00,VWS V14.01,2013-05-24 04:41:00,
2013-05-23 21:46:00,47.2,44.4,29.91,NNW,337,0.0,0.0,90,0.00,,---,0.07,0.00,VWS V14.01,2013-05-24 04:46:00,
2013-05-23 21:51:00,47.0,44.2,29.91,NNW,337,0.0,0.0,90,0.00,,---,0.07,0.00,VWS V14.01,2013-05-24 04:51:00,
2013-05-23 21:56:00,46.8,44.0,29.92,NNW,337,0.0,0.0,90,0.00,,---,0.07,0.00,VWS V14.01,2013-05-24 04:56:00,
2013-05-23 22:01:00,46.7,44.2,29.91,NNW,337,0.0,0.0,91,0.00,,---,0.07,0.00,VWS V14.01,2013-05-24 05:01:00,
2013-05-23 22:06:00,46.6,44.1,29.91,NNW,337,0.0,0.0,91,0.00,,---,0.07,0.00,VWS V14.01,2013-05-24 05:06:00,
2013-05-23 22:11:00,46.5,44.0,29.91,NNW,337,0.0,0.0,91,0.00,,---,0.07,0.00,VWS V14.01,2013-05-24 05:11:00,
2013-05-23 22:16:00,46.4,43.9,29.91,NNW,337,0.0,0.0,91,0.00,,---,0.07,0.00,VWS V14.01,2013-05-24 05:16:00,
2013-05-23 22:21:00,46.3,43.8,29.91,NNW,337,0.0,0.0,91,0.00,,---,0.07,0.00,VWS V14.01,2013-05-24 05:21:00,
2013-05-23 22:26:00,46.3,43.8,29.91,NNW,337,0.0,0.0,91,0.00,,---,0.07,0.00,VWS V14.01,2013-05-24 05:26:00,
2013-05-23 22:31:00,46.2,44.0,29.92,NNW,337,0.0,0.0,92,0.00,,---,0.07,0.00,VWS V14.01,2013-05-24 05:31:00,
2013-05-23 22:37:00,46.3,44.4,29.92,NNW,337,0.0,0.0,93,0.00,,---,0.07,0.00,VWS V14.01,2013-05-24 05:37:00,
2013-05-23 22:42:00,46.5,44.6,29.92,NNW,337,0.0,0.0,93,0.00,,---,0.07,0.00,VWS V14.01,2013-05-24 05:42:00,
2013-05-23 22:47:00,46.6,45.0,29.92,NNW,337,0.0,0.0,94,0.00,,---,0.07,0.00,VWS V14.01,2013-05-24 05:47:00,
2013-05-23 22:52:00,46.7,45.1,29.92,NNW,337,0.0,0.0,94,0.01,,---,0.08,0.00,VWS V14.01,2013-05-24 05:52:00,
2013-05-23 22:57:00,46.7,45.1,29.92,NNW,337,0.0,0.0,94,0.02,,---,0.09,0.00,VWS V14.01,2013-05-24 05:57:00,
2013-05-23 23:02:00,46.8,45.2,29.92,NNW,337,0.0,0.0,94,0.04,,---,0.11,0.00,VWS V14.01,2013-05-24 06:02:00,
2013-05-23 23:07:00,46.9,45.3,29.91,NNW,337,0.0,0.0,94,0.04,,---,0.11,0.00,VWS V14.01,2013-05-24 06:07:00,
2013-05-23 23:12:00,47.0,45.4,29.91,NNW,337,0.0,0.0,94,0.04,,---,0.11,0.00,VWS V14.01,2013-05-24 06:12:00,
2013-05-23 23:17:00,47.0,45.4,29.91,NNW,337,0.0,0.0,94,0.04,,---,0.11,0.00,VWS V14.01,2013-05-24 06:17:00,
2013-05-23 23:22:00,47.1,45.5,29.91,NNW,337,0.0,0.0,94,0.04,,---,0.11,0.00,VWS V14.01,2013-05-24 06:22:00,
2013-05-23 23:27:00,47.0,45.4,29.91,NNW,337,0.0,0.0,94,0.04,,---,0.11,0.00,VWS V14.01,2013-05-24 06:27:00,
2013-05-23 23:32:00,47.0,45.4,29.91,NNW,337,0.0,0.0,94,0.04,,---,0.11,0.00,VWS V14.01,2013-05-24 06:32:00,
2013-05-23 23:37:00,46.9,45.3,29.91,NNW,337,0.0,0.0,94,0.04,,---,0.11,0.00,VWS V14.01,2013-05-24 06:37:00,
2013-05-23 23:42:00,46.8,45.2,29.91,NNW,337,0.0,0.0,94,0.04,,---,0.11,0.00,VWS V14.01,2013-05-24 06:42:00,
2013-05-23 23:47:00,46.7,45.1,29.91,NNW,337,0.0,0.0,94,0.04,,---,0.11,0.00,VWS V14.01,2013-05-24 06:47:00,
2013-05-23 23:52:00,46.5,44.9,29.91,NNW,337,0.0,0.0,94,0.03,,---,0.11,0.00,VWS V14.01,2013-05-24 06:52:00,
2013-05-23 23:57:00,46.3,44.7,29.91,NNW,337,0.0,0.0,94,0.02,,---,0.11,0.00,VWS V14.01,2013-05-24 06:57:00,